sensor_id;sensor_type;location;lat;lon;timestamp;P1;durP1;ratioP1;P2;durP2;ratioP2
16870;SDS011;8552;48.120;-1.456;2022-08-21T00:02:00;6.90;;;2.72;;
16870;SDS011;8552;48.120;-1.456;2022-08-21T00:04:26;8.00;;;2.85;;
16870;SDS011;8552;48.120;-1.456;2022-08-21T00:06:52;12.50;;;2.97;;
16870;SDS011;8552;48.120;-1.456;2022-08-21T00:09:18;11.40;;;3.28;;
16870;SDS011;8552;48.120;-1.456;2022-08-21T00:11:45;8.10;;;2.78;;
16870;SDS011;8552;48.120;-1.456;2022-08-21T00:14:12;8.13;;;2.45;;
16870;SDS011;8552;48.120;-1.456;2022-08-21T00:16:38;9.80;;;2.63;;
16870;SDS011;8552;48.120;-1.456;2022-08-21T00:19:04;8.32;;;2.40;;
16870;SDS011;8552;48.120;-1.456;2022-08-21T00:21:31;7.93;;;2.47;;
16870;SDS011;8552;48.120;-1.456;2022-08-21T00:23:57;10.75;;;2.70;;
16870;SDS011;8552;48.120;-1.456;2022-08-21T00:26:23;8.10;;;2.85;;
16870;SDS011;8552;48.120;-1.456;2022-08-21T00:28:49;5.32;;;2.13;;
16870;SDS011;8552;48.120;-1.456;2022-08-21T00:31:16;9.02;;;2.30;;
16870;SDS011;8552;48.120;-1.456;2022-08-21T00:33:42;7.80;;;3.00;;
16870;SDS011;8552;48.120;-1.456;2022-08-21T00:36:08;8.38;;;2.88;;
16870;SDS011;8552;48.120;-1.456;2022-08-21T00:38:35;7.65;;;2.78;;
16870;SDS011;8552;48.120;-1.456;2022-08-21T00:41:02;7.22;;;2.90;;
16870;SDS011;8552;48.120;-1.456;2022-08-21T00:43:32;5.90;;;2.13;;
16870;SDS011;8552;48.120;-1.456;2022-08-21T00:46:00;10.50;;;2.80;;
16870;SDS011;8552;48.120;-1.456;2022-08-21T00:48:27;9.20;;;3.22;;
16870;SDS011;8552;48.120;-1.456;2022-08-21T00:51:12;6.75;;;2.40;;
16870;SDS011;8552;48.120;-1.456;2022-08-21T00:53:43;9.25;;;2.80;;
16870;SDS011;8552;48.120;-1.456;2022-08-21T00:56:11;9.38;;;2.45;;
16870;SDS011;8552;48.120;-1.456;2022-08-21T00:58:39;6.15;;;2.50;;
16870;SDS011;8552;48.120;-1.456;2022-08-21T01:01:07;7.07;;;3.05;;
16870;SDS011;8552;48.120;-1.456;2022-08-21T01:03:33;10.38;;;2.78;;
16870;SDS011;8552;48.120;-1.456;2022-08-21T01:06:00;9.80;;;2.40;;
16870;SDS011;8552;48.120;-1.456;2022-08-21T01:08:27;6.18;;;2.42;;
16870;SDS011;8552;48.120;-1.456;2022-08-21T01:10:54;7.07;;;2.90;;
16870;SDS011;8552;48.120;-1.456;2022-08-21T01:13:21;6.82;;;2.60;;
16870;SDS011;8552;48.120;-1.456;2022-08-21T01:15:50;8.05;;;2.97;;
16870;SDS011;8552;48.120;-1.456;2022-08-21T01:18:18;7.10;;;2.90;;
16870;SDS011;8552;48.120;-1.456;2022-08-21T01:20:56;7.47;;;2.60;;
16870;SDS011;8552;48.120;-1.456;2022-08-21T01:23:40;6.28;;;2.42;;
16870;SDS011;8552;48.120;-1.456;2022-08-21T01:26:08;5.80;;;2.60;;
16870;SDS011;8552;48.120;-1.456;2022-08-21T01:28:37;8.13;;;3.08;;
16870;SDS011;8552;48.120;-1.456;2022-08-21T01:31:09;5.65;;;3.03;;
16870;SDS011;8552;48.120;-1.456;2022-08-21T01:33:37;7.22;;;2.40;;
16870;SDS011;8552;48.120;-1.456;2022-08-21T01:36:03;11.38;;;2.63;;
16870;SDS011;8552;48.120;-1.456;2022-08-21T01:38:29;8.30;;;2.45;;
16870;SDS011;8552;48.120;-1.456;2022-08-21T01:40:55;6.95;;;2.53;;
16870;SDS011;8552;48.120;-1.456;2022-08-21T01:43:21;8.68;;;2.63;;
16870;SDS011;8552;48.120;-1.456;2022-08-21T01:45:47;8.88;;;2.85;;
16870;SDS011;8552;48.120;-1.456;2022-08-21T01:48:13;5.00;;;2.78;;
16870;SDS011;8552;48.120;-1.456;2022-08-21T01:50:39;6.57;;;2.83;;
16870;SDS011;8552;48.120;-1.456;2022-08-21T01:53:04;10.15;;;2.90;;
16870;SDS011;8552;48.120;-1.456;2022-08-21T01:55:30;9.30;;;2.97;;
16870;SDS011;8552;48.120;-1.456;2022-08-21T01:57:56;9.35;;;2.80;;
16870;SDS011;8552;48.120;-1.456;2022-08-21T02:00:24;8.50;;;2.70;;
16870;SDS011;8552;48.120;-1.456;2022-08-21T02:02:50;10.27;;;2.95;;
16870;SDS011;8552;48.120;-1.456;2022-08-21T02:05:16;7.10;;;2.70;;
16870;SDS011;8552;48.120;-1.456;2022-08-21T02:07:45;7.65;;;2.67;;
16870;SDS011;8552;48.120;-1.456;2022-08-21T02:10:15;4.32;;;2.83;;
16870;SDS011;8552;48.120;-1.456;2022-08-21T02:12:43;9.73;;;2.50;;
16870;SDS011;8552;48.120;-1.456;2022-08-21T02:15:09;4.78;;;2.58;;
16870;SDS011;8552;48.120;-1.456;2022-08-21T02:17:43;7.03;;;2.58;;
16870;SDS011;8552;48.120;-1.456;2022-08-21T02:20:11;7.25;;;2.58;;
16870;SDS011;8552;48.120;-1.456;2022-08-21T02:22:43;7.15;;;2.50;;
16870;SDS011;8552;48.120;-1.456;2022-08-21T02:25:10;5.88;;;3.00;;
16870;SDS011;8552;48.120;-1.456;2022-08-21T02:27:42;8.70;;;2.90;;
16870;SDS011;8552;48.120;-1.456;2022-08-21T02:30:17;7.88;;;2.72;;
16870;SDS011;8552;48.120;-1.456;2022-08-21T02:32:45;10.15;;;3.08;;
16870;SDS011;8552;48.120;-1.456;2022-08-21T02:35:11;6.45;;;2.80;;
16870;SDS011;8552;48.120;-1.456;2022-08-21T02:37:47;6.80;;;2.72;;
16870;SDS011;8552;48.120;-1.456;2022-08-21T02:40:34;7.32;;;2.50;;
16870;SDS011;8552;48.120;-1.456;2022-08-21T02:43:03;6.50;;;3.03;;
16870;SDS011;8552;48.120;-1.456;2022-08-21T02:45:30;5.32;;;2.72;;
16870;SDS011;8552;48.120;-1.456;2022-08-21T02:47:57;7.15;;;2.85;;
16870;SDS011;8552;48.120;-1.456;2022-08-21T02:50:27;6.22;;;2.53;;
16870;SDS011;8552;48.120;-1.456;2022-08-21T02:52:55;5.43;;;2.20;;
16870;SDS011;8552;48.120;-1.456;2022-08-21T02:55:22;8.77;;;3.13;;
16870;SDS011;8552;48.120;-1.456;2022-08-21T02:57:50;6.32;;;2.40;;
16870;SDS011;8552;48.120;-1.456;2022-08-21T03:00:16;7.20;;;2.92;;
16870;SDS011;8552;48.120;-1.456;2022-08-21T03:02:42;14.57;;;3.45;;
16870;SDS011;8552;48.120;-1.456;2022-08-21T03:05:08;6.47;;;2.65;;
16870;SDS011;8552;48.120;-1.456;2022-08-21T03:07:36;9.35;;;2.35;;
16870;SDS011;8552;48.120;-1.456;2022-08-21T03:10:03;8.48;;;2.50;;
16870;SDS011;8552;48.120;-1.456;2022-08-21T03:12:30;7.65;;;2.40;;
16870;SDS011;8552;48.120;-1.456;2022-08-21T03:14:55;8.00;;;2.40;;
16870;SDS011;8552;48.120;-1.456;2022-08-21T03:17:22;7.25;;;2.80;;
16870;SDS011;8552;48.120;-1.456;2022-08-21T03:19:49;6.55;;;2.20;;
16870;SDS011;8552;48.120;-1.456;2022-08-21T03:22:15;6.22;;;2.55;;
16870;SDS011;8552;48.120;-1.456;2022-08-21T03:24:41;7.00;;;2.85;;
16870;SDS011;8552;48.120;-1.456;2022-08-21T03:27:06;6.90;;;2.67;;
16870;SDS011;8552;48.120;-1.456;2022-08-21T03:29:32;7.10;;;2.45;;
16870;SDS011;8552;48.120;-1.456;2022-08-21T03:31:58;8.75;;;2.45;;
16870;SDS011;8552;48.120;-1.456;2022-08-21T03:34:23;9.65;;;2.60;;
16870;SDS011;8552;48.120;-1.456;2022-08-21T03:36:49;5.47;;;2.15;;
16870;SDS011;8552;48.120;-1.456;2022-08-21T03:39:16;7.65;;;2.50;;
16870;SDS011;8552;48.120;-1.456;2022-08-21T03:41:42;8.32;;;2.53;;
16870;SDS011;8552;48.120;-1.456;2022-08-21T03:44:08;8.02;;;2.55;;
16870;SDS011;8552;48.120;-1.456;2022-08-21T03:46:33;6.63;;;2.40;;
16870;SDS011;8552;48.120;-1.456;2022-08-21T03:48:59;9.25;;;2.50;;
16870;SDS011;8552;48.120;-1.456;2022-08-21T03:51:25;8.30;;;2.92;;
16870;SDS011;8552;48.120;-1.456;2022-08-21T03:53:52;8.75;;;3.38;;
16870;SDS011;8552;48.120;-1.456;2022-08-21T03:56:17;6.38;;;2.60;;
16870;SDS011;8552;48.120;-1.456;2022-08-21T03:58:43;7.38;;;3.00;;
16870;SDS011;8552;48.120;-1.456;2022-08-21T04:01:10;4.80;;;2.58;;
16870;SDS011;8552;48.120;-1.456;2022-08-21T04:03:36;7.15;;;2.78;;
16870;SDS011;8552;48.120;-1.456;2022-08-21T04:06:03;7.22;;;2.88;;
16870;SDS011;8552;48.120;-1.456;2022-08-21T04:08:29;6.47;;;3.20;;
16870;SDS011;8552;48.120;-1.456;2022-08-21T04:10:55;4.45;;;2.42;;
16870;SDS011;8552;48.120;-1.456;2022-08-21T04:13:23;7.30;;;2.08;;
16870;SDS011;8552;48.120;-1.456;2022-08-21T04:15:49;8.07;;;2.88;;
16870;SDS011;8552;48.120;-1.456;2022-08-21T04:18:15;6.57;;;2.80;;
16870;SDS011;8552;48.120;-1.456;2022-08-21T04:20:41;7.22;;;2.50;;
16870;SDS011;8552;48.120;-1.456;2022-08-21T04:23:08;6.32;;;2.10;;
16870;SDS011;8552;48.120;-1.456;2022-08-21T04:25:34;7.28;;;3.00;;
16870;SDS011;8552;48.120;-1.456;2022-08-21T04:28:00;7.78;;;2.30;;
16870;SDS011;8552;48.120;-1.456;2022-08-21T04:30:27;7.05;;;2.42;;
16870;SDS011;8552;48.120;-1.456;2022-08-21T04:32:52;9.40;;;2.67;;
16870;SDS011;8552;48.120;-1.456;2022-08-21T04:35:20;7.43;;;2.70;;
16870;SDS011;8552;48.120;-1.456;2022-08-21T04:37:47;8.25;;;3.00;;
16870;SDS011;8552;48.120;-1.456;2022-08-21T04:40:14;9.57;;;3.13;;
16870;SDS011;8552;48.120;-1.456;2022-08-21T04:42:43;7.43;;;3.00;;
16870;SDS011;8552;48.120;-1.456;2022-08-21T04:45:21;5.15;;;2.63;;
16870;SDS011;8552;48.120;-1.456;2022-08-21T04:47:50;7.68;;;2.70;;
16870;SDS011;8552;48.120;-1.456;2022-08-21T04:50:17;12.15;;;3.63;;
16870;SDS011;8552;48.120;-1.456;2022-08-21T04:52:43;7.47;;;2.60;;
16870;SDS011;8552;48.120;-1.456;2022-08-21T04:55:10;10.20;;;4.05;;
16870;SDS011;8552;48.120;-1.456;2022-08-21T04:57:36;9.70;;;2.90;;
16870;SDS011;8552;48.120;-1.456;2022-08-21T05:00:02;8.68;;;2.95;;
16870;SDS011;8552;48.120;-1.456;2022-08-21T05:02:30;5.55;;;2.60;;
16870;SDS011;8552;48.120;-1.456;2022-08-21T05:04:58;7.30;;;2.95;;
16870;SDS011;8552;48.120;-1.456;2022-08-21T05:07:26;6.95;;;2.72;;
16870;SDS011;8552;48.120;-1.456;2022-08-21T05:09:54;7.80;;;2.60;;
16870;SDS011;8552;48.120;-1.456;2022-08-21T05:12:20;8.15;;;2.88;;
16870;SDS011;8552;48.120;-1.456;2022-08-21T05:14:47;5.78;;;2.88;;
16870;SDS011;8552;48.120;-1.456;2022-08-21T05:17:12;11.65;;;3.20;;
16870;SDS011;8552;48.120;-1.456;2022-08-21T05:19:39;5.82;;;2.38;;
16870;SDS011;8552;48.120;-1.456;2022-08-21T05:22:04;7.82;;;3.35;;
16870;SDS011;8552;48.120;-1.456;2022-08-21T05:24:31;6.68;;;2.75;;
16870;SDS011;8552;48.120;-1.456;2022-08-21T05:26:57;8.23;;;3.05;;
16870;SDS011;8552;48.120;-1.456;2022-08-21T05:29:23;6.75;;;2.83;;
16870;SDS011;8552;48.120;-1.456;2022-08-21T05:31:49;6.53;;;2.67;;
16870;SDS011;8552;48.120;-1.456;2022-08-21T05:34:18;5.45;;;2.55;;
16870;SDS011;8552;48.120;-1.456;2022-08-21T05:36:46;8.43;;;2.97;;
16870;SDS011;8552;48.120;-1.456;2022-08-21T05:39:12;5.55;;;2.88;;
16870;SDS011;8552;48.120;-1.456;2022-08-21T05:41:38;5.90;;;2.70;;
16870;SDS011;8552;48.120;-1.456;2022-08-21T05:44:03;7.60;;;2.78;;
16870;SDS011;8552;48.120;-1.456;2022-08-21T05:46:29;6.15;;;2.33;;
16870;SDS011;8552;48.120;-1.456;2022-08-21T05:48:55;5.45;;;2.70;;
16870;SDS011;8552;48.120;-1.456;2022-08-21T05:51:20;8.27;;;3.58;;
16870;SDS011;8552;48.120;-1.456;2022-08-21T05:53:46;6.05;;;2.60;;
16870;SDS011;8552;48.120;-1.456;2022-08-21T05:56:12;6.53;;;3.05;;
16870;SDS011;8552;48.120;-1.456;2022-08-21T05:58:39;10.85;;;3.40;;
16870;SDS011;8552;48.120;-1.456;2022-08-21T06:01:05;11.88;;;3.80;;
16870;SDS011;8552;48.120;-1.456;2022-08-21T06:03:34;5.07;;;2.45;;
16870;SDS011;8552;48.120;-1.456;2022-08-21T06:06:02;8.85;;;2.85;;
16870;SDS011;8552;48.120;-1.456;2022-08-21T06:08:28;6.43;;;2.95;;
16870;SDS011;8552;48.120;-1.456;2022-08-21T06:10:55;8.18;;;4.03;;
16870;SDS011;8552;48.120;-1.456;2022-08-21T06:13:23;8.38;;;3.03;;
16870;SDS011;8552;48.120;-1.456;2022-08-21T06:15:59;6.78;;;2.95;;
16870;SDS011;8552;48.120;-1.456;2022-08-21T06:18:27;8.50;;;3.50;;
16870;SDS011;8552;48.120;-1.456;2022-08-21T06:20:52;7.07;;;3.50;;
16870;SDS011;8552;48.120;-1.456;2022-08-21T06:23:18;12.88;;;3.45;;
16870;SDS011;8552;48.120;-1.456;2022-08-21T06:25:44;8.63;;;3.50;;
16870;SDS011;8552;48.120;-1.456;2022-08-21T06:28:09;7.80;;;3.50;;
16870;SDS011;8552;48.120;-1.456;2022-08-21T06:30:36;11.18;;;3.53;;
16870;SDS011;8552;48.120;-1.456;2022-08-21T06:33:04;6.85;;;3.92;;
16870;SDS011;8552;48.120;-1.456;2022-08-21T06:35:31;10.73;;;3.78;;
16870;SDS011;8552;48.120;-1.456;2022-08-21T06:37:57;7.28;;;3.50;;
16870;SDS011;8552;48.120;-1.456;2022-08-21T06:40:23;11.55;;;3.80;;
16870;SDS011;8552;48.120;-1.456;2022-08-21T06:42:50;14.82;;;4.07;;
16870;SDS011;8552;48.120;-1.456;2022-08-21T06:45:15;9.82;;;4.03;;
16870;SDS011;8552;48.120;-1.456;2022-08-21T06:47:41;7.40;;;2.90;;
16870;SDS011;8552;48.120;-1.456;2022-08-21T06:50:07;8.05;;;3.15;;
16870;SDS011;8552;48.120;-1.456;2022-08-21T06:52:34;8.73;;;3.72;;
16870;SDS011;8552;48.120;-1.456;2022-08-21T06:55:00;9.57;;;3.97;;
16870;SDS011;8552;48.120;-1.456;2022-08-21T06:57:26;9.75;;;3.20;;
16870;SDS011;8552;48.120;-1.456;2022-08-21T06:59:52;8.88;;;3.42;;
16870;SDS011;8552;48.120;-1.456;2022-08-21T07:02:17;10.25;;;3.58;;
16870;SDS011;8552;48.120;-1.456;2022-08-21T07:04:43;12.68;;;3.55;;
16870;SDS011;8552;48.120;-1.456;2022-08-21T07:07:09;9.05;;;3.63;;
16870;SDS011;8552;48.120;-1.456;2022-08-21T07:09:35;7.88;;;3.15;;
16870;SDS011;8552;48.120;-1.456;2022-08-21T07:12:01;9.02;;;3.60;;
16870;SDS011;8552;48.120;-1.456;2022-08-21T07:14:27;9.95;;;4.20;;
16870;SDS011;8552;48.120;-1.456;2022-08-21T07:16:53;11.32;;;4.00;;
16870;SDS011;8552;48.120;-1.456;2022-08-21T07:19:19;13.50;;;3.25;;
16870;SDS011;8552;48.120;-1.456;2022-08-21T07:21:45;11.68;;;4.07;;
16870;SDS011;8552;48.120;-1.456;2022-08-21T07:24:11;10.57;;;3.88;;
16870;SDS011;8552;48.120;-1.456;2022-08-21T07:26:37;10.50;;;3.53;;
16870;SDS011;8552;48.120;-1.456;2022-08-21T07:29:03;6.97;;;3.35;;
16870;SDS011;8552;48.120;-1.456;2022-08-21T07:31:29;14.02;;;3.88;;
16870;SDS011;8552;48.120;-1.456;2022-08-21T07:33:55;11.00;;;3.90;;
16870;SDS011;8552;48.120;-1.456;2022-08-21T07:36:21;12.20;;;4.82;;
16870;SDS011;8552;48.120;-1.456;2022-08-21T07:38:47;11.98;;;3.80;;
16870;SDS011;8552;48.120;-1.456;2022-08-21T07:41:18;9.77;;;3.72;;
16870;SDS011;8552;48.120;-1.456;2022-08-21T07:43:48;8.18;;;3.20;;
16870;SDS011;8552;48.120;-1.456;2022-08-21T07:46:14;9.48;;;3.63;;
16870;SDS011;8552;48.120;-1.456;2022-08-21T07:48:40;10.63;;;3.92;;
16870;SDS011;8552;48.120;-1.456;2022-08-21T07:51:07;10.30;;;3.30;;
16870;SDS011;8552;48.120;-1.456;2022-08-21T07:53:36;9.90;;;3.80;;
16870;SDS011;8552;48.120;-1.456;2022-08-21T07:56:03;5.53;;;2.88;;
16870;SDS011;8552;48.120;-1.456;2022-08-21T07:58:30;11.63;;;3.53;;
16870;SDS011;8552;48.120;-1.456;2022-08-21T08:00:56;8.50;;;3.45;;
16870;SDS011;8552;48.120;-1.456;2022-08-21T08:03:22;10.07;;;3.92;;
16870;SDS011;8552;48.120;-1.456;2022-08-21T08:05:48;13.02;;;3.38;;
16870;SDS011;8552;48.120;-1.456;2022-08-21T08:08:14;7.13;;;3.75;;
16870;SDS011;8552;48.120;-1.456;2022-08-21T08:10:40;7.95;;;3.65;;
16870;SDS011;8552;48.120;-1.456;2022-08-21T08:13:06;9.77;;;3.40;;
16870;SDS011;8552;48.120;-1.456;2022-08-21T08:15:32;12.23;;;3.65;;
16870;SDS011;8552;48.120;-1.456;2022-08-21T08:17:57;10.30;;;3.20;;
16870;SDS011;8552;48.120;-1.456;2022-08-21T08:20:24;8.10;;;3.33;;
16870;SDS011;8552;48.120;-1.456;2022-08-21T08:22:51;9.75;;;3.03;;
16870;SDS011;8552;48.120;-1.456;2022-08-21T08:25:18;16.45;;;2.72;;
16870;SDS011;8552;48.120;-1.456;2022-08-21T08:27:44;11.43;;;2.88;;
16870;SDS011;8552;48.120;-1.456;2022-08-21T08:30:11;13.25;;;2.75;;
16870;SDS011;8552;48.120;-1.456;2022-08-21T08:32:38;9.88;;;2.85;;
16870;SDS011;8552;48.120;-1.456;2022-08-21T08:35:04;10.43;;;2.78;;
16870;SDS011;8552;48.120;-1.456;2022-08-21T08:37:32;11.93;;;3.85;;
16870;SDS011;8552;48.120;-1.456;2022-08-21T08:39:58;7.88;;;3.15;;
16870;SDS011;8552;48.120;-1.456;2022-08-21T08:42:29;6.22;;;3.10;;
16870;SDS011;8552;48.120;-1.456;2022-08-21T08:44:59;7.00;;;2.63;;
16870;SDS011;8552;48.120;-1.456;2022-08-21T08:47:31;9.50;;;3.35;;
16870;SDS011;8552;48.120;-1.456;2022-08-21T08:50:19;8.07;;;2.53;;
16870;SDS011;8552;48.120;-1.456;2022-08-21T08:52:49;6.78;;;2.63;;
16870;SDS011;8552;48.120;-1.456;2022-08-21T08:55:26;7.80;;;2.13;;
16870;SDS011;8552;48.120;-1.456;2022-08-21T08:57:58;9.82;;;1.85;;
16870;SDS011;8552;48.120;-1.456;2022-08-21T09:00:24;11.23;;;2.67;;
16870;SDS011;8552;48.120;-1.456;2022-08-21T09:02:55;8.73;;;2.30;;
16870;SDS011;8552;48.120;-1.456;2022-08-21T09:05:23;8.45;;;1.92;;
16870;SDS011;8552;48.120;-1.456;2022-08-21T09:07:59;6.20;;;2.20;;
16870;SDS011;8552;48.120;-1.456;2022-08-21T09:10:57;6.82;;;2.92;;
16870;SDS011;8552;48.120;-1.456;2022-08-21T09:27:09;5.00;;;1.60;;
16870;SDS011;8552;48.120;-1.456;2022-08-21T09:29:47;8.50;;;2.35;;
16870;SDS011;8552;48.120;-1.456;2022-08-21T09:32:34;8.85;;;2.40;;
16870;SDS011;8552;48.120;-1.456;2022-08-21T09:37:31;5.32;;;1.80;;
16870;SDS011;8552;48.120;-1.456;2022-08-21T09:40:00;7.82;;;2.15;;
16870;SDS011;8552;48.120;-1.456;2022-08-21T09:42:29;11.00;;;2.05;;
16870;SDS011;8552;48.120;-1.456;2022-08-21T09:45:17;5.90;;;1.50;;
16870;SDS011;8552;48.120;-1.456;2022-08-21T09:47:43;6.32;;;1.55;;
16870;SDS011;8552;48.120;-1.456;2022-08-21T09:50:28;5.32;;;1.45;;
16870;SDS011;8552;48.120;-1.456;2022-08-21T09:52:55;5.38;;;1.15;;
16870;SDS011;8552;48.120;-1.456;2022-08-21T09:58:49;4.95;;;1.52;;
16870;SDS011;8552;48.120;-1.456;2022-08-21T10:01:19;3.78;;;1.42;;
16870;SDS011;8552;48.120;-1.456;2022-08-21T10:03:47;5.57;;;1.40;;
16870;SDS011;8552;48.120;-1.456;2022-08-21T10:06:24;5.88;;;1.55;;
16870;SDS011;8552;48.120;-1.456;2022-08-21T10:11:39;7.05;;;1.38;;
16870;SDS011;8552;48.120;-1.456;2022-08-21T10:14:30;6.03;;;1.90;;
16870;SDS011;8552;48.120;-1.456;2022-08-21T10:33:15;5.13;;;1.30;;
16870;SDS011;8552;48.120;-1.456;2022-08-21T10:36:17;3.63;;;1.17;;
16870;SDS011;8552;48.120;-1.456;2022-08-21T10:49:53;3.20;;;1.08;;
16870;SDS011;8552;48.120;-1.456;2022-08-21T10:57:58;2.83;;;0.63;;
16870;SDS011;8552;48.120;-1.456;2022-08-21T11:00:33;3.53;;;0.80;;
16870;SDS011;8552;48.120;-1.456;2022-08-21T11:03:17;1.30;;;0.93;;
16870;SDS011;8552;48.120;-1.456;2022-08-21T11:08:50;4.35;;;0.95;;
16870;SDS011;8552;48.120;-1.456;2022-08-21T11:11:24;3.70;;;0.88;;
16870;SDS011;8552;48.120;-1.456;2022-08-21T11:14:17;3.35;;;1.10;;
16870;SDS011;8552;48.120;-1.456;2022-08-21T11:16:46;3.17;;;1.13;;
16870;SDS011;8552;48.120;-1.456;2022-08-21T11:19:22;3.10;;;1.25;;
16870;SDS011;8552;48.120;-1.456;2022-08-21T11:24:38;3.55;;;0.93;;
16870;SDS011;8552;48.120;-1.456;2022-08-21T11:27:26;6.45;;;1.15;;
16870;SDS011;8552;48.120;-1.456;2022-08-21T11:30:09;8.40;;;1.60;;
16870;SDS011;8552;48.120;-1.456;2022-08-21T11:32:57;3.10;;;0.77;;
16870;SDS011;8552;48.120;-1.456;2022-08-21T11:43:07;5.70;;;1.42;;
16870;SDS011;8552;48.120;-1.456;2022-08-21T11:50:41;3.88;;;1.48;;
16870;SDS011;8552;48.120;-1.456;2022-08-21T11:55:50;6.78;;;1.60;;
16870;SDS011;8552;48.120;-1.456;2022-08-21T11:58:31;4.30;;;2.08;;
16870;SDS011;8552;48.120;-1.456;2022-08-21T12:01:10;8.80;;;3.15;;
16870;SDS011;8552;48.120;-1.456;2022-08-21T12:03:51;6.38;;;2.42;;
16870;SDS011;8552;48.120;-1.456;2022-08-21T12:06:27;8.25;;;1.92;;
16870;SDS011;8552;48.120;-1.456;2022-08-21T12:09:06;3.78;;;1.33;;
16870;SDS011;8552;48.120;-1.456;2022-08-21T12:11:45;3.50;;;1.23;;
16870;SDS011;8552;48.120;-1.456;2022-08-21T12:14:14;4.57;;;1.25;;
16870;SDS011;8552;48.120;-1.456;2022-08-21T12:16:44;2.88;;;1.33;;
16870;SDS011;8552;48.120;-1.456;2022-08-21T12:21:57;6.43;;;1.70;;
16870;SDS011;8552;48.120;-1.456;2022-08-21T12:29:29;4.13;;;2.00;;
16870;SDS011;8552;48.120;-1.456;2022-08-21T12:32:03;5.22;;;1.73;;
16870;SDS011;8552;48.120;-1.456;2022-08-21T12:37:34;2.08;;;1.02;;
16870;SDS011;8552;48.120;-1.456;2022-08-21T12:40:02;2.65;;;1.10;;
16870;SDS011;8552;48.120;-1.456;2022-08-21T12:42:38;3.00;;;1.20;;
16870;SDS011;8552;48.120;-1.456;2022-08-21T12:45:54;6.50;;;1.52;;
16870;SDS011;8552;48.120;-1.456;2022-08-21T12:48:13;3.75;;;1.35;;
16870;SDS011;8552;48.120;-1.456;2022-08-21T12:51:26;2.15;;;1.20;;
16870;SDS011;8552;48.120;-1.456;2022-08-21T12:56:10;5.63;;;1.15;;
16870;SDS011;8552;48.120;-1.456;2022-08-21T12:58:45;3.15;;;1.40;;
16870;SDS011;8552;48.120;-1.456;2022-08-21T13:01:17;2.88;;;1.40;;
16870;SDS011;8552;48.120;-1.456;2022-08-21T13:03:54;3.33;;;1.48;;
16870;SDS011;8552;48.120;-1.456;2022-08-21T13:06:26;4.25;;;1.27;;
16870;SDS011;8552;48.120;-1.456;2022-08-21T13:08:57;2.50;;;1.00;;
16870;SDS011;8552;48.120;-1.456;2022-08-21T13:11:31;2.83;;;1.02;;
16870;SDS011;8552;48.120;-1.456;2022-08-21T13:13:57;1.92;;;1.17;;
16870;SDS011;8552;48.120;-1.456;2022-08-21T13:16:26;3.33;;;1.08;;
16870;SDS011;8552;48.120;-1.456;2022-08-21T13:21:32;3.60;;;1.38;;
16870;SDS011;8552;48.120;-1.456;2022-08-21T13:24:20;2.05;;;0.95;;
16870;SDS011;8552;48.120;-1.456;2022-08-21T13:26:48;1.35;;;1.08;;
16870;SDS011;8552;48.120;-1.456;2022-08-21T13:29:17;2.95;;;0.82;;
16870;SDS011;8552;48.120;-1.456;2022-08-21T13:31:51;0.85;;;0.75;;
16870;SDS011;8552;48.120;-1.456;2022-08-21T13:34:26;1.77;;;0.73;;
16870;SDS011;8552;48.120;-1.456;2022-08-21T13:36:56;1.75;;;1.00;;
16870;SDS011;8552;48.120;-1.456;2022-08-21T13:39:24;2.80;;;0.60;;
16870;SDS011;8552;48.120;-1.456;2022-08-21T13:41:51;1.17;;;0.80;;
16870;SDS011;8552;48.120;-1.456;2022-08-21T13:47:04;0.75;;;0.50;;
16870;SDS011;8552;48.120;-1.456;2022-08-21T13:49:32;1.33;;;0.50;;
16870;SDS011;8552;48.120;-1.456;2022-08-21T13:52:00;0.73;;;0.55;;
16870;SDS011;8552;48.120;-1.456;2022-08-21T13:54:38;1.90;;;0.70;;
16870;SDS011;8552;48.120;-1.456;2022-08-21T13:57:15;1.77;;;0.60;;
16870;SDS011;8552;48.120;-1.456;2022-08-21T13:59:42;1.05;;;0.80;;
16870;SDS011;8552;48.120;-1.456;2022-08-21T14:02:15;0.90;;;0.82;;
16870;SDS011;8552;48.120;-1.456;2022-08-21T14:04:53;1.05;;;0.70;;
16870;SDS011;8552;48.120;-1.456;2022-08-21T14:07:29;0.80;;;0.60;;
16870;SDS011;8552;48.120;-1.456;2022-08-21T14:10:04;1.08;;;0.60;;
16870;SDS011;8552;48.120;-1.456;2022-08-21T14:12:47;0.85;;;0.60;;
16870;SDS011;8552;48.120;-1.456;2022-08-21T14:15:18;0.80;;;0.65;;
16870;SDS011;8552;48.120;-1.456;2022-08-21T14:17:48;0.75;;;0.57;;
16870;SDS011;8552;48.120;-1.456;2022-08-21T14:20:33;1.13;;;0.80;;
16870;SDS011;8552;48.120;-1.456;2022-08-21T14:23:00;1.45;;;0.70;;
16870;SDS011;8552;48.120;-1.456;2022-08-21T14:25:28;0.82;;;0.70;;
16870;SDS011;8552;48.120;-1.456;2022-08-21T14:30:54;1.25;;;0.77;;
16870;SDS011;8552;48.120;-1.456;2022-08-21T14:33:30;1.80;;;0.75;;
16870;SDS011;8552;48.120;-1.456;2022-08-21T14:35:57;1.90;;;0.75;;
16870;SDS011;8552;48.120;-1.456;2022-08-21T14:38:24;1.83;;;1.00;;
16870;SDS011;8552;48.120;-1.456;2022-08-21T14:40:52;2.17;;;0.90;;
16870;SDS011;8552;48.120;-1.456;2022-08-21T14:43:20;1.40;;;1.02;;
16870;SDS011;8552;48.120;-1.456;2022-08-21T14:45:46;1.55;;;1.20;;
16870;SDS011;8552;48.120;-1.456;2022-08-21T14:48:12;1.70;;;0.80;;
16870;SDS011;8552;48.120;-1.456;2022-08-21T14:50:38;1.48;;;0.77;;
16870;SDS011;8552;48.120;-1.456;2022-08-21T14:53:05;1.10;;;0.98;;
16870;SDS011;8552;48.120;-1.456;2022-08-21T14:55:31;0.77;;;0.75;;
16870;SDS011;8552;48.120;-1.456;2022-08-21T14:58:19;1.55;;;0.90;;
16870;SDS011;8552;48.120;-1.456;2022-08-21T15:00:47;1.65;;;1.05;;
16870;SDS011;8552;48.120;-1.456;2022-08-21T15:03:12;1.52;;;0.70;;
16870;SDS011;8552;48.120;-1.456;2022-08-21T15:05:38;0.80;;;0.70;;
16870;SDS011;8552;48.120;-1.456;2022-08-21T15:08:04;1.40;;;0.98;;
16870;SDS011;8552;48.120;-1.456;2022-08-21T15:10:30;1.45;;;0.80;;
16870;SDS011;8552;48.120;-1.456;2022-08-21T15:12:57;0.63;;;0.52;;
16870;SDS011;8552;48.120;-1.456;2022-08-21T15:15:23;1.80;;;0.80;;
16870;SDS011;8552;48.120;-1.456;2022-08-21T15:17:49;1.00;;;0.77;;
16870;SDS011;8552;48.120;-1.456;2022-08-21T15:20:14;1.35;;;0.90;;
16870;SDS011;8552;48.120;-1.456;2022-08-21T15:22:40;0.95;;;0.82;;
16870;SDS011;8552;48.120;-1.456;2022-08-21T15:25:06;1.20;;;0.50;;
16870;SDS011;8552;48.120;-1.456;2022-08-21T15:27:32;1.13;;;0.50;;
16870;SDS011;8552;48.120;-1.456;2022-08-21T15:29:59;1.05;;;0.93;;
16870;SDS011;8552;48.120;-1.456;2022-08-21T15:32:26;0.98;;;0.73;;
16870;SDS011;8552;48.120;-1.456;2022-08-21T15:34:54;0.80;;;0.65;;
16870;SDS011;8552;48.120;-1.456;2022-08-21T15:37:21;1.00;;;0.60;;
16870;SDS011;8552;48.120;-1.456;2022-08-21T15:39:48;1.00;;;0.75;;
16870;SDS011;8552;48.120;-1.456;2022-08-21T15:42:14;1.00;;;0.70;;
16870;SDS011;8552;48.120;-1.456;2022-08-21T15:44:40;1.10;;;0.43;;
16870;SDS011;8552;48.120;-1.456;2022-08-21T15:47:12;1.63;;;0.50;;
16870;SDS011;8552;48.120;-1.456;2022-08-21T15:49:41;0.30;;;0.30;;
16870;SDS011;8552;48.120;-1.456;2022-08-21T15:52:11;0.52;;;0.52;;
16870;SDS011;8552;48.120;-1.456;2022-08-21T15:54:38;0.40;;;0.40;;
16870;SDS011;8552;48.120;-1.456;2022-08-21T15:57:03;0.50;;;0.50;;
16870;SDS011;8552;48.120;-1.456;2022-08-21T15:59:29;0.82;;;0.40;;
16870;SDS011;8552;48.120;-1.456;2022-08-21T16:02:12;0.80;;;0.50;;
16870;SDS011;8552;48.120;-1.456;2022-08-21T16:04:40;2.67;;;0.70;;
16870;SDS011;8552;48.120;-1.456;2022-08-21T16:07:06;1.15;;;0.60;;
16870;SDS011;8552;48.120;-1.456;2022-08-21T16:09:32;1.70;;;0.40;;
16870;SDS011;8552;48.120;-1.456;2022-08-21T16:11:58;1.08;;;0.50;;
16870;SDS011;8552;48.120;-1.456;2022-08-21T16:14:25;0.95;;;0.60;;
16870;SDS011;8552;48.120;-1.456;2022-08-21T16:16:51;0.73;;;0.40;;
16870;SDS011;8552;48.120;-1.456;2022-08-21T16:19:18;1.27;;;0.50;;
16870;SDS011;8552;48.120;-1.456;2022-08-21T16:21:45;1.25;;;0.40;;
16870;SDS011;8552;48.120;-1.456;2022-08-21T16:24:11;1.75;;;0.57;;
16870;SDS011;8552;48.120;-1.456;2022-08-21T16:26:37;0.77;;;0.77;;
16870;SDS011;8552;48.120;-1.456;2022-08-21T16:29:03;0.95;;;0.45;;
16870;SDS011;8552;48.120;-1.456;2022-08-21T16:31:30;1.27;;;0.65;;
16870;SDS011;8552;48.120;-1.456;2022-08-21T16:33:56;1.08;;;0.60;;
16870;SDS011;8552;48.120;-1.456;2022-08-21T16:36:23;0.30;;;0.30;;